Latest Weather Observations for Charles Point

IDD60901

Issued at 3:51 pm CST Friday 19 April 2019 (issued every 10 minutes, with the page automatically refreshed every 10 minutes)

About weather observations | Map of Darwin area stations | Latest observations for Darwin area | Other Formats
Station Details ID: 014031 Name: CHARLES POINT Lat: -12.39 Lon: 130.63 Height: 14.0 m
Data from the previous 72 hours. | See also: Recent months for locations in Northern Territory
Date/Time
CST
Temp
°C
App
Temp
°C
Dew
Point
°C
Rel
Hum
%
Delta-T
°C
Wind Press
QNH
hPa
Press
MSL
hPa
Rain since
9am
mm
Dir  Spd
km/h
Gust
km/h
Spd
kts
Gust
kts
19/03:30pm 31.3 33.7 22.9 61 5.8 NNE 15 20 8 11 1009.3 1009.2 0.0
19/03:00pm 31.5 34.4 23.1 61 5.8 NE 13 19 7 10 1009.4 1009.3 0.0
19/02:30pm 31.3 33.9 22.6 60 6.0 NE 13 17 7 9 1009.7 1009.6 0.0
19/02:00pm 31.8 34.9 22.8 59 6.2 NE 11 20 6 11 1010.1 1010.0 0.0
19/01:30pm 31.9 34.9 22.0 55 6.7 NE 9 15 5 8 1010.7 1010.6 0.0
19/01:00pm 31.8 35.4 23.1 60 6.0 NNE 9 13 5 7 1011.1 1011.0 0.0
19/12:30pm 31.1 34.3 22.4 60 5.9 NNE 9 13 5 7 1011.8 1011.7 0.0
19/12:00pm 32.0 36.1 23.0 59 6.2 E 6 11 3 6 1012.3 1012.2 0.0
19/11:30am 31.2 34.7 22.8 61 5.8 ENE 9 15 5 8 1012.8 1012.7 0.0
19/11:00am 30.9 35.3 23.5 64 5.1 ENE 6 11 3 6 1013.3 1013.2 0.0
19/10:30am 30.4 34.7 24.3 70 4.3 E 9 13 5 7 1013.6 1013.5 0.0
19/10:00am 29.7 33.9 24.1 72 3.9 ESE 9 17 5 9 1013.7 1013.6 0.0
19/09:30am 30.0 34.0 24.4 72 3.9 E 11 19 6 10 1013.6 1013.5 0.0
19/09:00am 29.0 33.5 23.7 73 3.7 SE 6 9 3 5 1013.5 1013.4 0.0
19/08:30am 28.2 32.6 23.8 77 3.0 SSE 7 13 4 7 1013.5 1013.4 0.0
19/08:00am 27.2 31.7 23.7 81 2.4 SSE 6 9 3 5 1013.3 1013.2 0.0
19/07:30am 26.2 30.3 23.3 84 2.0 SE 7 13 4 7 1012.8 1012.7 0.0
19/07:00am 26.0 30.1 23.3 85 1.8 SE 7 11 4 6 1012.6 1012.5 0.0
19/06:30am 25.3 29.5 23.2 88 1.4 SE 6 7 3 4 1012.3 1012.2 0.0
19/06:00am 25.8 30.4 23.1 85 1.8 SE 4 9 2 5 1012.1 1012.0 0.0
19/05:30am 25.9 30.0 23.0 84 2.0 SSE 6 7 3 4 1012.1 1012.0 0.0
19/05:00am 27.5 31.6 23.3 78 2.9 NE 7 13 4 7 1011.7 1011.6 0.0
19/04:30am 26.7 31.1 22.8 79 2.6 NE 4 7 2 4 1011.6 1011.5 0.0
19/04:00am 28.4 32.0 23.1 73 3.6 N 9 15 5 8 1011.7 1011.6 0.0
19/03:30am 28.4 31.9 22.9 72 3.8 N 9 13 5 7 1011.6 1011.5 0.0
19/03:00am 28.6 32.1 22.8 71 4.0 NNE 9 15 5 8 1011.7 1011.6 0.0
19/02:30am 28.5 31.1 22.7 71 3.9 N 13 19 7 10 1011.6 1011.5 0.0
19/02:00am 25.3 30.5 23.5 90 1.2 ESE 2 6 1 3 1012.0 1011.9 0.0
19/01:30am 25.8 30.8 23.8 89 1.4 SE 4 7 2 4 1012.2 1012.1 0.0
19/01:00am 26.2 31.2 23.9 87 1.6 SE 4 7 2 4 1012.4 1012.3 0.0
19/12:30am 25.4 30.8 23.8 91 1.1 E 2 4 1 2 1012.7 1012.6 0.0
19/12:00am 25.4 31.0 23.6 90 1.2 CALM 0 0 0 0 1012.7 1012.6 0.0
 
Date/Time
CST
Temp
°C
App
Temp
°C
Dew
Point
°C
Rel
Hum
%
Delta-T
°C
Wind Press
QNH
hPa
Press
MSL
hPa
Rain since
9am
mm
Dir  Spd
km/h
Gust
km/h
Spd
kts
Gust
kts
18/11:30pm 25.6 30.9 23.7 89 1.3 SW 2 2 1 1 1012.9 1012.8 0.0
18/11:00pm 25.8 30.8 23.8 89 1.4 SW 4 4 2 2 1012.8 1012.7 0.0
18/10:30pm 25.8 30.7 23.7 88 1.4 SW 4 4 2 2 1012.8 1012.7 0.0
18/10:00pm 26.0 30.8 23.5 86 1.7 SW 4 4 2 2 1012.6 1012.5 0.0
18/09:30pm 26.4 31.2 23.5 84 2.0 SW 4 6 2 3 1012.4 1012.3 0.0
18/09:00pm 26.4 31.2 23.5 84 2.0 SW 4 6 2 3 1012.1 1012.0 0.0
18/08:30pm 26.5 31.4 23.6 84 2.0 SSW 4 6 2 3 1011.6 1011.5 0.0
18/08:00pm 27.0 31.8 23.5 81 2.4 SSW 4 6 2 3 1011.2 1011.1 0.0
18/07:30pm 28.0 33.1 23.4 76 3.2 S 2 6 1 3 1010.8 1010.7 0.0
18/07:00pm 29.6 33.7 23.3 69 4.3 NE 7 11 4 6 1010.5 1010.4 0.0
18/06:30pm 29.7 33.8 22.9 67 4.7 NNE 6 9 3 5 1010.4 1010.3 0.0
18/06:00pm 30.1 34.2 23.3 67 4.7 NNE 7 13 4 7 1010.3 1010.2 0.0
18/05:30pm 30.4 33.5 22.8 64 5.2 NNE 11 15 6 8 1010.1 1010.0 0.0
18/05:00pm 30.6 33.6 22.7 62 5.4 NNE 11 15 6 8 1010.1 1010.0 0.0
18/04:30pm 30.8 32.7 22.1 59 5.9 N 15 17 8 9 1010.0 1009.9 0.0
18/04:00pm 30.9 33.0 22.5 61 5.7 NNE 15 19 8 10 1009.9 1009.8 0.0
18/03:30pm 31.4 33.5 22.4 59 6.1 NNE 15 20 8 11 1010.0 1009.9 0.0
18/03:00pm 31.2 33.9 22.8 61 5.8 N 13 17 7 9 1010.3 1010.2 0.0
18/02:30pm 31.4 35.2 23.5 63 5.5 N 9 13 5 7 1010.6 1010.5 0.0
18/02:00pm 31.4 35.0 23.8 64 5.3 N 11 13 6 7 1011.0 1010.9 0.0
18/01:30pm 31.4 35.5 24.0 65 5.2 N 9 11 5 6 1011.4 1011.3 0.0
18/01:00pm 31.0 35.2 23.4 64 5.2 N 7 11 4 6 1011.9 1011.8 0.0
18/12:30pm 31.6 35.7 23.2 61 5.8 NE 7 11 4 6 1012.4 1012.3 0.0
18/12:00pm 31.4 36.1 24.3 66 5.0 NNE 7 13 4 7 1013.1 1013.0 0.0
18/11:30am 31.8 36.9 24.9 67 4.9 NE 7 13 4 7 1013.6 1013.5 0.0
18/11:00am 31.2 35.8 24.1 66 4.9 ENE 7 11 4 6 1013.8 1013.7 0.0
18/10:30am 31.2 36.2 24.8 69 4.5 E 7 13 4 7 1013.8 1013.7 0.0
18/10:00am 30.3 34.6 23.7 68 4.6 E 7 15 4 8 1013.8 1013.7 0.0
18/09:30am 30.6 35.6 24.5 70 4.3 E 6 11 3 6 1013.7 1013.6 0.0
18/09:00am 30.6 36.0 24.5 70 4.3 E 4 9 2 5 1013.5 1013.4 0.0
18/08:30am 29.5 35.0 24.6 75 3.4 ESE 4 6 2 3 1013.3 1013.2 0.0
18/08:00am 29.2 34.5 24.3 75 3.4 ENE 4 7 2 4 1013.0 1012.9 0.0
18/07:30am 27.9 33.4 25.3 86 1.8 NE 6 9 3 5 1012.7 1012.6 0.0
18/07:00am 26.4 32.1 24.4 89 1.4 ENE 2 7 1 4 1012.3 1012.2 0.0
18/06:30am 27.6 32.9 25.0 86 1.8 NE 6 9 3 5 1011.7 1011.6 0.0
18/06:00am 27.9 33.5 25.5 87 1.7 NNE 6 9 3 5 1011.6 1011.5 0.0
18/05:30am 25.9 31.4 24.7 93 0.8 ESE 4 7 2 4 1011.3 1011.2 0.0
18/05:00am 25.2 30.6 24.5 96 0.5 SE 4 6 2 3 1011.3 1011.2 0.0
18/04:30am 25.0 30.1 24.1 95 0.6 SSE 4 4 2 2 1011.1 1011.0 0.0
18/04:00am 25.1 30.2 24.1 94 0.7 SE 4 4 2 2 1011.1 1011.0 0.0
18/03:30am 25.2 31.2 24.2 94 0.7 CALM 0 0 0 0 1011.2 1011.1 0.0
18/03:00am 25.4 31.2 24.0 92 1.0 CALM 0 2 0 1 1011.3 1011.2 0.0
18/02:30am 25.7 31.3 24.3 92 1.0 ENE 2 4 1 2 1011.9 1011.8 0.0
18/02:00am 25.6 30.7 24.0 91 1.1 SSW 4 6 2 3 1011.9 1011.8 0.0
18/01:30am 25.7 30.7 23.9 90 1.2 SW 4 6 2 3 1012.2 1012.1 0.0
18/01:00am 25.9 30.9 23.8 88 1.4 SW 4 6 2 3 1012.5 1012.4 0.0
18/12:30am 26.3 31.3 23.8 86 1.7 WSW 4 6 2 3 1012.7 1012.6 0.0
18/12:00am 26.5 31.6 24.0 86 1.7 SW 4 6 2 3 1012.7 1012.6 0.0
 
Date/Time
CST
Temp
°C
App
Temp
°C
Dew
Point
°C
Rel
Hum
%
Delta-T
°C
Wind Press
QNH
hPa
Press
MSL
hPa
Rain since
9am
mm
Dir  Spd
km/h
Gust
km/h
Spd
kts
Gust
kts
17/11:30pm 26.5 31.7 24.2 87 1.6 SW 4 7 2 4 1012.8 1012.7 0.0
17/11:00pm 26.8 32.1 24.3 86 1.7 SW 4 6 2 3 1012.9 1012.8 0.0
17/10:30pm 26.6 31.9 24.3 87 1.6 SW 4 7 2 4 1013.1 1013.0 0.0
17/10:00pm 26.8 32.1 24.3 86 1.7 SW 4 6 2 3 1013.0 1012.9 0.0
17/09:30pm 26.9 32.2 24.4 86 1.7 SW 4 6 2 3 1012.9 1012.8 0.0
17/09:00pm 27.0 32.3 24.3 85 1.9 SW 4 6 2 3 1012.6 1012.5 0.0
17/08:30pm 27.3 32.5 24.2 83 2.1 WSW 4 6 2 3 1012.2 1012.1 0.0
17/08:00pm 27.9 33.8 24.7 83 2.2 WSW 2 6 1 3 1011.8 1011.7 0.0
17/07:30pm 27.7 33.0 24.3 82 2.4 WSW 4 6 2 3 1011.3 1011.2 0.0
17/07:00pm 28.6 34.3 24.4 78 2.9 W 2 4 1 2 1010.9 1010.8 0.0
17/06:30pm 29.4 34.4 24.5 75 3.4 WNW 6 9 3 5 1010.5 1010.4 0.0
17/06:00pm 30.5 35.6 24.6 70 4.1 NW 6 9 3 5 1010.2 1010.1 0.0
17/05:30pm 30.6 35.5 24.3 69 4.4 N 6 9 3 5 1009.9 1009.8 0.0
17/05:00pm 30.6 34.9 24.3 69 4.4 N 9 11 5 6 1009.7 1009.6 0.0
17/04:30pm 30.9 35.3 24.5 68 4.5 N 9 13 5 7 1009.7 1009.6 0.0
17/04:00pm 31.1 35.2 24.0 66 4.9 N 9 13 5 7 1009.9 1009.8 0.0
17/03:30pm 30.9 34.0 23.5 64 5.1 N 13 17 7 9 1010.1 1010.0 0.0
17/03:00pm 30.8 33.6 23.7 66 4.9 N 15 19 8 10 1010.2 1010.1 0.0
17/02:30pm 31.2 35.0 24.1 66 5.0 NNE 11 15 6 8 1010.7 1010.6 0.0
17/02:00pm 31.7 36.1 23.8 63 5.5 NNE 7 9 4 5 1011.1 1011.0 0.0
17/01:30pm 31.7 36.2 24.0 63 5.4 NNE 7 11 4 6 1011.6 1011.5 0.0
17/01:00pm 31.7 35.9 23.5 62 5.7 NNE 7 11 4 6 1012.0 1011.9 0.0
17/12:30pm 31.8 36.6 24.1 63 5.4 NE 6 11 3 6 1012.5 1012.4 0.0
17/12:00pm 31.9 36.5 24.2 63 5.4 ENE 7 13 4 7 1013.0 1012.9 0.0
17/11:30am 31.5 36.0 23.9 64 5.3 E 7 15 4 8 1013.4 1013.3 0.0
17/11:00am 31.0 35.2 23.4 64 5.2 E 7 15 4 8 1013.6 1013.5 0.0
17/10:30am 30.4 34.0 23.1 65 5.0 E 9 15 5 8 1013.6 1013.5 0.0
17/10:00am 30.4 34.8 23.8 68 4.6 E 7 13 4 7 1013.6 1013.5 0.0
17/09:30am 30.0 34.2 23.4 67 4.5 ESE 7 15 4 8 1013.5 1013.4 0.0
17/09:00am 30.0 34.3 23.7 69 4.4 ESE 7 13 4 7 1013.3 1013.2 0.0
17/08:30am 29.1 34.6 24.7 77 3.1 ESE 4 6 2 3 1013.2 1013.1 0.0
17/08:00am 27.1 33.1 24.2 84 2.0 CALM 0 0 0 0 1013.0 1012.9 0.0
17/07:30am 24.8 29.4 23.8 94 0.7 SSE 6 6 3 3 1012.9 1012.8 0.0
17/07:00am 24.2 28.4 23.2 94 0.7 SSE 6 7 3 4 1012.6 1012.5 0.0
17/06:30am 24.2 28.3 23.0 93 0.8 SSE 6 7 3 4 1012.4 1012.3 0.0
17/06:00am 24.1 28.2 22.9 93 0.8 SSE 6 7 3 4 1011.9 1011.8 0.0
17/05:30am 24.1 28.3 23.1 94 0.7 SSE 6 7 3 4 1011.7 1011.6 0.0
17/05:00am 24.1 28.3 23.1 94 0.7 S 6 7 3 4 1011.7 1011.6 0.0
17/04:30am 24.1 28.3 23.2 95 0.6 S 6 7 3 4 1011.7 1011.6 0.0
17/04:00am 24.0 28.2 23.1 95 0.6 SSW 6 6 3 3 1011.5 1011.4 0.0
17/03:30am 24.1 29.4 23.1 94 0.7 CALM 0 0 0 0 1011.6 1011.5 0.0
17/03:00am 24.2 29.6 23.2 94 0.7 CALM 0 0 0 0 1011.5 1011.4 0.0
17/02:30am 24.3 29.0 23.3 94 0.7 SSW 4 4 2 2 1011.6 1011.5 0.0
17/02:00am 24.4 29.1 23.4 94 0.7 SSW 4 4 2 2 1012.0 1011.9 0.0
17/01:30am 24.6 30.1 23.4 93 0.8 CALM 0 0 0 0 1012.4 1012.3 0.0
17/01:00am 24.6 30.0 23.2 92 0.9 CALM 0 0 0 0 1012.5 1012.4 0.0
17/12:30am 24.8 30.2 23.2 91 1.1 CALM 0 0 0 0 1012.9 1012.8 0.0
17/12:00am 24.9 30.2 23.0 89 1.3 CALM 0 0 0 0 1012.9 1012.8 0.0
 
Date/Time
CST
Temp
°C
App
Temp
°C
Dew
Point
°C
Rel
Hum
%
Delta-T
°C
Wind Press
QNH
hPa
Press
MSL
hPa
Rain since
9am
mm
Dir  Spd
km/h
Gust
km/h
Spd
kts
Gust
kts
16/11:30pm 25.2 30.3 23.3 89 1.3 SW 2 4 1 2 1012.8 1012.7 0.0
16/11:00pm 25.5 30.4 23.7 90 1.2 SW 4 6 2 3 1012.9 1012.8 0.0
16/10:30pm 25.4 30.3 23.6 90 1.2 SW 4 6 2 3 1013.1 1013.0 0.0
16/10:00pm 25.4 30.6 23.5 89 1.3 WSW 2 4 1 2 1012.9 1012.8 0.0
16/09:30pm 25.6 30.9 23.7 89 1.3 WSW 2 4 1 2 1012.8 1012.7 0.0
16/09:00pm 25.8 31.1 23.7 88 1.4 WSW 2 4 1 2 1012.3 1012.2 0.0
16/08:30pm 26.1 31.0 23.6 86 1.7 SW 4 4 2 2 1012.0 1011.9 0.0
16/08:00pm 26.6 32.2 23.5 83 2.1 CALM 0 0 0 0 1011.7 1011.6 0.0
16/07:30pm 27.2 32.3 23.4 80 2.6 W 2 6 1 3 1011.2 1011.1 0.0
16/07:00pm 28.1 33.1 23.2 74 3.4 W 2 4 1 2 1010.9 1010.8 0.0
16/06:30pm 29.6 33.9 23.3 69 4.3 WNW 6 7 3 4 1010.6 1010.5 0.0
16/06:00pm 30.4 34.4 23.1 65 5.0 NW 7 11 4 6 1010.3 1010.2 0.0
16/05:30pm 31.0 34.9 22.9 62 5.6 NW 7 11 4 6 1010.1 1010.0 0.0
16/05:00pm 31.1 35.4 23.7 64 5.1 WNW 7 13 4 7 1009.9 1009.8 0.0
16/04:30pm 31.1 34.6 23.5 64 5.3 NW 11 15 6 8 1009.7 1009.6 0.0
16/04:00pm 31.1 34.3 23.7 64 5.1 NW 13 17 7 9 1009.6 1009.5 0.0

Latest Capital City Observations: Canberra | Sydney | Melbourne | Brisbane | Adelaide | Perth | Hobart | Darwin

Other formats

Comma delimited format used in spreadsheet applications
http://www.bom.gov.au/fwo/IDD60901/IDD60901.99510.axf

JavaScript Object Notation format (JSON) in row-major order
http://www.bom.gov.au/fwo/IDD60901/IDD60901.99510.json

Data quality

Most of these data are generated automatically and are frequently updated. Quality checks on data are not normally performed. It is possible for incorrect values to appear. Refer to information at About Latest Weather Observations and please check the disclaimer before using these data.